createdAt,value
2018-02-14T00:00:04.732Z,4.8
2018-02-14T00:00:45.274Z,4.8
2018-02-14T00:01:25.827Z,4.86
2018-02-14T00:02:06.376Z,4.75
2018-02-14T00:02:46.931Z,4.85
2018-02-14T00:03:27.502Z,4.84
2018-02-14T00:04:08.060Z,4.78
2018-02-14T00:04:48.641Z,4.73
2018-02-14T00:05:29.197Z,4.77
2018-02-14T00:06:09.787Z,4.84
2018-02-14T00:06:50.346Z,4.85
2018-02-14T00:07:30.954Z,4.73
2018-02-14T00:08:11.500Z,4.88
2018-02-14T00:08:52.050Z,4.86
2018-02-14T00:09:32.612Z,4.8
2018-02-14T00:10:13.178Z,4.75
2018-02-14T00:10:53.743Z,4.8
2018-02-14T00:11:34.310Z,4.86
2018-02-14T00:12:14.879Z,4.88
2018-02-14T00:12:55.500Z,4.78
2018-02-14T00:13:36.064Z,4.82
2018-02-14T00:14:16.712Z,4.89
2018-02-14T00:14:57.209Z,4.84
2018-02-14T00:15:37.766Z,4.8
2018-02-14T00:16:18.355Z,4.86
2018-02-14T00:16:58.956Z,4.8
2018-02-14T00:17:39.477Z,4.94
2018-02-14T00:18:20.042Z,4.75
2018-02-14T00:19:00.632Z,4.94
2018-02-14T00:19:41.184Z,4.85
2018-02-14T00:20:21.774Z,4.82
2018-02-14T00:21:02.320Z,4.91
2018-02-14T00:21:42.886Z,4.99
2018-02-14T00:22:23.442Z,5.03
2018-02-14T00:23:03.989Z,5
2018-02-14T00:23:44.546Z,4.96
2018-02-14T00:24:25.141Z,5.03
2018-02-14T00:25:05.704Z,4.94
2018-02-14T00:25:46.264Z,4.85
2018-02-14T00:26:26.819Z,5
2018-02-14T00:27:07.371Z,4.88
2018-02-14T00:27:47.943Z,4.75
2018-02-14T00:28:28.507Z,4.86
2018-02-14T00:29:09.059Z,4.89
2018-02-14T00:29:49.644Z,4.97
2018-02-14T00:30:30.213Z,5.02
2018-02-14T00:31:10.759Z,4.89
2018-02-14T00:31:51.320Z,4.84
2018-02-14T00:32:31.955Z,4.88
2018-02-14T00:33:12.528Z,4.85
2018-02-14T00:33:53.083Z,4.89
2018-02-14T00:34:33.653Z,4.82
2018-02-14T00:35:14.218Z,4.89
2018-02-14T00:35:54.772Z,4.96
2018-02-14T00:36:35.338Z,4.86
2018-02-14T00:37:15.901Z,4.89
2018-02-14T00:37:56.466Z,4.85
2018-02-14T00:38:37.022Z,4.82
2018-02-14T00:39:17.582Z,4.82
2018-02-14T00:39:58.144Z,4.94
2018-02-14T00:40:38.696Z,4.91
2018-02-14T00:41:19.249Z,4.96
2018-02-14T00:41:59.834Z,4.85
2018-02-14T00:42:40.405Z,4.88
2018-02-14T00:43:20.965Z,4.89
2018-02-14T00:44:01.531Z,4.92
2018-02-14T00:44:42.091Z,4.77
2018-02-14T00:45:22.657Z,4.84
2018-02-14T00:46:03.230Z,4.92
2018-02-14T00:46:43.818Z,4.89
2018-02-14T00:47:24.366Z,4.85
2018-02-14T00:48:04.916Z,4.88
2018-02-14T00:48:45.473Z,4.82
2018-02-14T00:49:26.055Z,4.84
2018-02-14T00:50:06.623Z,4.92
2018-02-14T00:50:47.178Z,4.86
2018-02-14T00:51:27.771Z,4.85
2018-02-14T00:52:08.328Z,4.97
2018-02-14T00:52:48.955Z,4.88
2018-02-14T00:53:29.550Z,4.92
2018-02-14T00:54:10.131Z,4.97
2018-02-14T00:54:50.675Z,4.97
2018-02-14T00:55:31.199Z,4.99
2018-02-14T00:56:11.764Z,4.84
2018-02-14T00:56:52.411Z,4.89
2018-02-14T00:57:32.994Z,4.94
2018-02-14T00:58:13.544Z,4.89
2018-02-14T00:58:54.120Z,4.88
2018-02-14T00:59:34.667Z,4.77
2018-02-14T01:00:15.243Z,4.91
2018-02-14T01:00:55.802Z,4.94
2018-02-14T01:01:36.368Z,4.97
2018-02-14T01:02:16.922Z,4.96
2018-02-14T01:02:57.501Z,4.97
2018-02-14T01:03:38.059Z,4.92
2018-02-14T01:04:18.662Z,4.89
2018-02-14T01:04:59.193Z,4.84
2018-02-14T01:05:39.761Z,4.77
2018-02-14T01:06:20.334Z,4.72
2018-02-14T01:07:00.890Z,4.8
2018-02-14T01:07:41.453Z,4.72
2018-02-14T01:08:22.013Z,4.75
2018-02-14T01:09:02.575Z,4.84
2018-02-14T01:09:43.124Z,4.75
2018-02-14T01:10:23.689Z,4.82
2018-02-14T01:11:04.258Z,4.94
2018-02-14T01:11:44.818Z,4.94
2018-02-14T01:12:25.381Z,4.97
2018-02-14T01:13:05.938Z,4.89
2018-02-14T01:13:46.507Z,4.77
2018-02-14T01:14:27.060Z,4.73
2018-02-14T01:15:07.614Z,4.73
2018-02-14T01:15:48.182Z,4.63
2018-02-14T01:16:29.220Z,4.77
2018-02-14T01:17:12.816Z,4.75
2018-02-14T01:17:53.367Z,4.72
2018-02-14T01:18:33.914Z,4.85
2018-02-14T01:19:14.490Z,4.73
2018-02-14T01:19:55.069Z,4.7
2018-02-14T01:20:35.648Z,4.58
2018-02-14T01:21:16.197Z,4.66
2018-02-14T01:21:56.759Z,4.7
2018-02-14T01:22:37.307Z,4.78
2018-02-14T01:23:17.864Z,4.72
2018-02-14T01:23:58.435Z,4.73
2018-02-14T01:24:39.006Z,4.62
2018-02-14T01:25:19.558Z,4.59
2018-02-14T01:26:00.104Z,4.6
2018-02-14T01:26:40.655Z,4.5
2018-02-14T01:27:21.215Z,4.41
2018-02-14T01:28:01.796Z,4.47
2018-02-14T01:28:42.364Z,4.54
2018-02-14T01:29:22.950Z,4.59
2018-02-14T01:30:03.515Z,4.45
2018-02-14T01:30:44.078Z,4.58
2018-02-14T01:31:24.622Z,4.62
2018-02-14T01:32:05.210Z,4.6
2018-02-14T01:32:45.759Z,4.6
2018-02-14T01:33:26.324Z,4.7
2018-02-14T01:34:06.894Z,4.62
2018-02-14T01:34:47.451Z,4.59
2018-02-14T01:35:28.009Z,4.58
2018-02-14T01:36:08.564Z,4.51
2018-02-14T01:36:49.131Z,4.51
2018-02-14T01:37:29.699Z,4.58
2018-02-14T01:38:10.248Z,4.51
2018-02-14T01:38:50.839Z,4.52
2018-02-14T01:39:31.401Z,4.6
2018-02-14T01:40:11.957Z,4.48
2018-02-14T01:40:52.528Z,4.52
2018-02-14T01:41:33.087Z,4.62
2018-02-14T01:42:13.644Z,4.65
2018-02-14T01:42:54.198Z,4.54
2018-02-14T01:43:34.762Z,4.58
2018-02-14T01:44:15.322Z,4.65
2018-02-14T01:44:55.912Z,4.65
2018-02-14T01:45:36.482Z,4.7
2018-02-14T01:46:17.036Z,4.85
2018-02-14T01:46:57.615Z,4.77
2018-02-14T01:47:38.184Z,4.77
2018-02-14T01:48:18.730Z,4.72
2018-02-14T01:48:59.290Z,4.72
2018-02-14T01:49:39.844Z,4.75
2018-02-14T01:50:20.399Z,4.72
2018-02-14T01:51:00.961Z,4.72
2018-02-14T01:51:41.517Z,4.73
2018-02-14T01:52:22.067Z,4.77
2018-02-14T01:53:02.652Z,4.72
2018-02-14T01:53:43.214Z,4.72
2018-02-14T01:54:23.761Z,4.75
2018-02-14T01:55:04.321Z,4.75
2018-02-14T01:55:44.896Z,4.82
2018-02-14T01:56:25.438Z,4.85
2018-02-14T01:57:05.989Z,4.75
2018-02-14T01:57:46.552Z,4.7
2018-02-14T01:58:27.114Z,4.75
2018-02-14T01:59:07.670Z,4.73
2018-02-14T01:59:48.246Z,4.72
2018-02-14T02:00:28.799Z,4.69
2018-02-14T02:01:09.366Z,4.48
2018-02-14T02:01:49.917Z,4.6
2018-02-14T02:02:30.475Z,4.5
2018-02-14T02:03:11.026Z,4.5
2018-02-14T02:03:51.599Z,4.52
2018-02-14T02:04:32.169Z,4.48
2018-02-14T02:05:12.714Z,4.54
2018-02-14T02:05:53.271Z,4.6
2018-02-14T02:06:33.843Z,4.6
2018-02-14T02:07:14.388Z,4.59
2018-02-14T02:07:54.950Z,4.48
2018-02-14T02:08:35.530Z,4.52
2018-02-14T02:09:16.092Z,4.63
2018-02-14T02:09:56.638Z,4.5
2018-02-14T02:10:37.197Z,4.59
2018-02-14T02:11:17.747Z,4.73
2018-02-14T02:11:58.313Z,4.62
2018-02-14T02:12:38.885Z,4.62
2018-02-14T02:13:19.440Z,4.54
2018-02-14T02:14:00.005Z,4.54
2018-02-14T02:14:40.561Z,4.52
2018-02-14T02:15:21.121Z,4.54
2018-02-14T02:16:01.684Z,4.42
2018-02-14T02:16:42.260Z,4.45
2018-02-14T02:17:22.832Z,4.48
2018-02-14T02:18:03.410Z,4.42
2018-02-14T02:18:43.973Z,4.51
2018-02-14T02:19:24.529Z,4.52
2018-02-14T02:20:05.079Z,4.63
2018-02-14T02:20:45.657Z,4.66
2018-02-14T02:21:26.202Z,4.62
2018-02-14T02:22:06.798Z,4.51
2018-02-14T02:22:47.355Z,4.54
2018-02-14T02:23:27.895Z,4.58
2018-02-14T02:24:08.448Z,4.62
2018-02-14T02:24:49.011Z,4.58
2018-02-14T02:25:29.573Z,4.54
2018-02-14T02:26:10.125Z,4.47
2018-02-14T02:26:50.678Z,4.51
2018-02-14T02:27:31.237Z,4.48
2018-02-14T02:28:11.792Z,4.51
2018-02-14T02:28:52.351Z,4.6
2018-02-14T02:29:32.903Z,4.51
2018-02-14T02:30:13.458Z,4.54
2018-02-14T02:30:54.021Z,4.55
2018-02-14T02:31:34.565Z,4.55
2018-02-14T02:32:15.118Z,4.32
2018-02-14T02:32:55.678Z,4.36
2018-02-14T02:33:36.240Z,4.36
2018-02-14T02:34:16.801Z,4.52
2018-02-14T02:34:57.376Z,4.45
2018-02-14T02:35:37.948Z,4.32
2018-02-14T02:36:18.502Z,4.37
2018-02-14T02:36:59.078Z,4.4
2018-02-14T02:37:39.634Z,4.52
2018-02-14T02:38:20.199Z,4.32
2018-02-14T02:39:00.739Z,4.42
2018-02-14T02:39:41.296Z,4.41
2018-02-14T02:40:21.855Z,4.4
2018-02-14T02:41:02.407Z,4.33
2018-02-14T02:41:42.978Z,4.41
2018-02-14T02:42:23.527Z,4.47
2018-02-14T02:43:04.087Z,4.5
2018-02-14T02:43:44.642Z,4.42
2018-02-14T02:44:25.209Z,4.5
2018-02-14T02:45:05.753Z,4.51
2018-02-14T02:45:46.329Z,4.37
2018-02-14T02:46:26.881Z,4.41
2018-02-14T02:47:07.448Z,4.33
2018-02-14T02:47:48.001Z,4.29
2018-02-14T02:48:28.576Z,4.18
2018-02-14T02:49:09.139Z,4.12
2018-02-14T02:49:49.694Z,4.18
2018-02-14T02:50:30.261Z,4.36
2018-02-14T02:51:10.816Z,4.37
2018-02-14T02:51:51.370Z,4.44
2018-02-14T02:52:31.933Z,4.37
2018-02-14T02:53:12.490Z,4.33
2018-02-14T02:53:53.043Z,4.36
2018-02-14T02:54:33.586Z,4.47
2018-02-14T02:55:14.148Z,4.47
2018-02-14T02:55:54.703Z,4.5
2018-02-14T02:56:35.271Z,4.42
2018-02-14T02:57:15.825Z,4.36
2018-02-14T02:57:56.388Z,4.4
2018-02-14T02:58:36.973Z,4.44
2018-02-14T02:59:17.530Z,4.42
2018-02-14T02:59:58.097Z,4.41
2018-02-14T03:00:38.665Z,4.42
2018-02-14T03:01:19.224Z,4.41
2018-02-14T03:01:59.789Z,4.34
2018-02-14T03:02:40.346Z,4.36
2018-02-14T03:03:20.904Z,4.37
2018-02-14T03:04:01.475Z,4.4
2018-02-14T03:04:42.036Z,4.51
2018-02-14T03:05:22.599Z,4.48
2018-02-14T03:06:03.156Z,4.42
2018-02-14T03:06:43.710Z,4.27
2018-02-14T03:07:24.277Z,4.3
2018-02-14T03:08:04.860Z,4.33
2018-02-14T03:08:45.415Z,4.32
2018-02-14T03:09:25.991Z,4.29
2018-02-14T03:10:06.549Z,4.29
2018-02-14T03:10:47.109Z,4.41
2018-02-14T03:11:27.666Z,4.42
2018-02-14T03:12:08.227Z,4.41
2018-02-14T03:12:48.788Z,4.34
2018-02-14T03:13:29.360Z,4.37
2018-02-14T03:14:09.925Z,4.3
2018-02-14T03:14:50.483Z,4.34
2018-02-14T03:15:31.037Z,4.32
2018-02-14T03:16:11.593Z,4.4
2018-02-14T03:16:52.168Z,4.41
2018-02-14T03:17:32.728Z,4.41
2018-02-14T03:18:13.271Z,4.22
2018-02-14T03:18:53.838Z,4.14
2018-02-14T03:19:34.401Z,4.14
2018-02-14T03:20:14.979Z,4.06
2018-02-14T03:20:55.550Z,4.12
2018-02-14T03:21:36.109Z,4.2
2018-02-14T03:22:16.664Z,4.26
2018-02-14T03:22:57.225Z,4.24
2018-02-14T03:23:37.785Z,4.23
2018-02-14T03:24:18.352Z,4.2
2018-02-14T03:24:58.913Z,4.27
2018-02-14T03:25:39.471Z,4.24
2018-02-14T03:26:20.032Z,4.29
2018-02-14T03:27:00.623Z,4.12
2018-02-14T03:27:41.173Z,4.12
2018-02-14T03:28:21.721Z,4.12
2018-02-14T03:29:02.299Z,4.09
2018-02-14T03:29:42.863Z,4.11
2018-02-14T03:30:23.424Z,4.14
2018-02-14T03:31:03.978Z,4.32
2018-02-14T03:31:44.527Z,4.3
2018-02-14T03:32:25.097Z,4.29
2018-02-14T03:33:05.642Z,4.3
2018-02-14T03:33:46.219Z,4.37
2018-02-14T03:34:26.773Z,4.34
2018-02-14T03:35:07.338Z,4.34
2018-02-14T03:35:47.905Z,4.44
2018-02-14T03:36:28.457Z,4.41
2018-02-14T03:37:08.997Z,4.32
2018-02-14T03:37:49.565Z,4.09
2018-02-14T03:38:30.130Z,4.2
2018-02-14T03:39:10.685Z,4.11
2018-02-14T03:39:51.265Z,4.09
2018-02-14T03:40:31.802Z,4.12
2018-02-14T03:41:12.374Z,4.12
2018-02-14T03:41:52.929Z,4.06
2018-02-14T03:42:33.490Z,4.15
2018-02-14T03:43:14.031Z,4
2018-02-14T03:43:54.606Z,4.04
2018-02-14T03:44:35.157Z,4.05
2018-02-14T03:45:15.740Z,4.02
2018-02-14T03:45:56.320Z,4.11
2018-02-14T03:46:36.890Z,4.04
2018-02-14T03:47:17.458Z,4.15
2018-02-14T03:47:58.016Z,4.24
2018-02-14T03:48:38.578Z,4.09
2018-02-14T03:49:19.140Z,4.08
2018-02-14T03:49:59.707Z,4.12
2018-02-14T03:50:40.261Z,4.04
2018-02-14T03:51:20.812Z,4.16
2018-02-14T03:52:01.353Z,4.11
2018-02-14T03:52:41.921Z,4.09
2018-02-14T03:53:22.481Z,4.02
2018-02-14T03:54:03.024Z,4.02
2018-02-14T03:54:43.605Z,4.14
2018-02-14T03:55:24.160Z,4.09
2018-02-14T03:56:04.731Z,4.09
2018-02-14T03:56:45.292Z,4
2018-02-14T03:57:25.857Z,4.06
2018-02-14T03:58:06.415Z,3.93
2018-02-14T03:58:46.978Z,4.05
2018-02-14T03:59:27.545Z,4.04
2018-02-14T04:00:08.100Z,4.14
2018-02-14T04:00:48.660Z,4.02
2018-02-14T04:01:29.216Z,4.14
2018-02-14T04:02:09.778Z,3.91
2018-02-14T04:02:50.344Z,3.88
2018-02-14T04:03:30.899Z,3.94
2018-02-14T04:04:11.465Z,4
2018-02-14T04:04:52.036Z,4.06
2018-02-14T04:05:32.593Z,4
2018-02-14T04:06:13.153Z,3.97
2018-02-14T04:06:53.717Z,4.08
2018-02-14T04:07:34.283Z,4
2018-02-14T04:08:14.837Z,3.98
2018-02-14T04:08:55.396Z,3.76
2018-02-14T04:09:35.948Z,3.93
2018-02-14T04:10:16.500Z,3.9
2018-02-14T04:10:57.062Z,3.97
2018-02-14T04:11:39.478Z,3.94
2018-02-14T04:12:19.549Z,3.97
2018-02-14T04:13:00.112Z,3.76
2018-02-14T04:13:40.675Z,3.88
2018-02-14T04:14:21.238Z,3.78
2018-02-14T04:15:01.792Z,3.88
2018-02-14T04:15:42.336Z,3.78
2018-02-14T04:16:22.905Z,3.8
2018-02-14T04:17:03.488Z,3.83
2018-02-14T04:17:44.046Z,3.79
2018-02-14T04:18:24.619Z,3.96
2018-02-14T04:19:05.173Z,3.9
2018-02-14T04:19:45.772Z,3.83
2018-02-14T04:20:26.287Z,3.93
2018-02-14T04:21:06.852Z,3.72
2018-02-14T04:21:47.433Z,3.75
2018-02-14T04:22:28.021Z,3.69
2018-02-14T04:23:08.580Z,3.8
2018-02-14T04:23:49.128Z,3.91
2018-02-14T04:24:29.686Z,3.84
2018-02-14T04:25:10.231Z,3.83
2018-02-14T04:25:50.792Z,3.72
2018-02-14T04:26:31.352Z,3.78
2018-02-14T04:27:11.916Z,3.72
2018-02-14T04:27:52.473Z,3.88
2018-02-14T04:28:33.063Z,3.97
2018-02-14T04:29:13.562Z,3.79
2018-02-14T04:29:54.116Z,3.93
2018-02-14T04:30:34.684Z,3.93
2018-02-14T04:31:15.224Z,3.9
2018-02-14T04:31:55.790Z,3.97
2018-02-14T04:32:36.349Z,4.06
2018-02-14T04:33:16.919Z,4.05
2018-02-14T04:33:57.462Z,4.05
2018-02-14T04:34:38.015Z,4.02
2018-02-14T04:35:18.587Z,3.94
2018-02-14T04:35:59.159Z,3.96
2018-02-14T04:36:39.731Z,3.88
2018-02-14T04:37:20.283Z,3.93
2018-02-14T04:38:00.826Z,3.91
2018-02-14T04:38:41.401Z,3.83
2018-02-14T04:39:21.966Z,3.9
2018-02-14T04:40:02.532Z,3.96
2018-02-14T04:40:43.091Z,3.83
2018-02-14T04:41:23.671Z,3.76
2018-02-14T04:42:04.230Z,3.76
2018-02-14T04:42:44.798Z,3.83
2018-02-14T04:43:25.358Z,3.75
2018-02-14T04:44:05.915Z,3.9
2018-02-14T04:44:46.475Z,3.78
2018-02-14T04:45:27.045Z,3.84
2018-02-14T04:46:07.595Z,3.88
2018-02-14T04:46:48.156Z,3.76
2018-02-14T04:47:28.707Z,3.8
2018-02-14T04:48:09.289Z,3.83
2018-02-14T04:48:49.845Z,3.79
2018-02-14T04:49:30.416Z,3.87
2018-02-14T04:50:10.973Z,3.84
2018-02-14T04:50:51.546Z,3.75
2018-02-14T04:51:32.110Z,3.75
2018-02-14T04:52:12.672Z,3.66
2018-02-14T04:52:53.230Z,3.79
2018-02-14T04:53:33.790Z,3.79
2018-02-14T04:54:14.350Z,3.79
2018-02-14T04:54:54.886Z,3.84
2018-02-14T04:55:35.458Z,3.8
2018-02-14T04:56:16.016Z,3.88
2018-02-14T04:56:57.497Z,3.83
2018-02-14T04:57:38.080Z,4
2018-02-14T04:58:18.652Z,3.91
2018-02-14T04:58:59.195Z,3.98
2018-02-14T04:59:39.754Z,3.97
2018-02-14T05:00:20.307Z,4.05
2018-02-14T05:01:00.860Z,4.04
2018-02-14T05:01:41.411Z,4.04
2018-02-14T05:02:21.968Z,4.04
2018-02-14T05:03:02.540Z,3.79
2018-02-14T05:03:43.097Z,3.72
2018-02-14T05:04:23.656Z,3.8
2018-02-14T05:05:04.209Z,3.88
2018-02-14T05:05:44.761Z,3.57
2018-02-14T05:06:25.323Z,3.69
2018-02-14T05:07:05.873Z,3.78
2018-02-14T05:07:46.427Z,3.75
2018-02-14T05:08:26.966Z,3.78
2018-02-14T05:09:07.536Z,3.84
2018-02-14T05:09:48.088Z,3.88
2018-02-14T05:10:28.655Z,3.91
2018-02-14T05:11:09.210Z,4
2018-02-14T05:11:49.779Z,3.97
2018-02-14T05:12:30.352Z,3.96
2018-02-14T05:13:10.899Z,4.09
2018-02-14T05:13:51.459Z,4.08
2018-02-14T05:14:32.008Z,4.02
2018-02-14T05:15:12.579Z,4.02
2018-02-14T05:15:53.153Z,4.11
2018-02-14T05:16:33.693Z,4.05
2018-02-14T05:17:14.240Z,4.02
2018-02-14T05:17:54.802Z,4.04
2018-02-14T05:18:35.378Z,4
2018-02-14T05:19:15.936Z,4.05
2018-02-14T05:19:56.480Z,4.05
2018-02-14T05:20:37.029Z,3.97
2018-02-14T05:21:17.600Z,4.02
2018-02-14T05:21:58.156Z,3.93
2018-02-14T05:22:38.714Z,3.93
2018-02-14T05:23:19.274Z,3.86
2018-02-14T05:23:59.828Z,3.97
2018-02-14T05:24:40.393Z,3.97
2018-02-14T05:25:20.974Z,4
2018-02-14T05:26:01.527Z,3.86
2018-02-14T05:26:42.087Z,3.93
2018-02-14T05:27:22.646Z,3.94
2018-02-14T05:28:03.220Z,3.78
2018-02-14T05:28:43.771Z,3.87
2018-02-14T05:29:24.338Z,4
2018-02-14T05:30:04.932Z,4.08
2018-02-14T05:30:45.496Z,3.98
2018-02-14T05:31:26.109Z,3.94
2018-02-14T05:32:06.663Z,4.05
2018-02-14T05:32:47.216Z,4.06
2018-02-14T05:33:27.772Z,3.97
2018-02-14T05:34:08.329Z,3.93
2018-02-14T05:34:48.886Z,4.09
2018-02-14T05:35:29.454Z,4.02
2018-02-14T05:36:10.015Z,3.97
2018-02-14T05:36:50.577Z,4
2018-02-14T05:37:31.142Z,4.12
2018-02-14T05:38:12.332Z,4.06
2018-02-14T05:38:52.894Z,4.08
2018-02-14T05:39:33.441Z,4.06
2018-02-14T05:40:13.995Z,4.11
2018-02-14T05:40:54.551Z,4.2
2018-02-14T05:41:35.133Z,4.2
2018-02-14T05:42:15.687Z,4.14
2018-02-14T05:42:56.230Z,4.08
2018-02-14T05:43:36.759Z,4.08
2018-02-14T05:44:17.322Z,4.06
2018-02-14T05:44:57.879Z,4.02
2018-02-14T05:45:38.443Z,4.05
2018-02-14T05:46:19.047Z,3.98
2018-02-14T05:46:59.564Z,4.12
2018-02-14T05:47:40.128Z,3.98
2018-02-14T05:48:20.678Z,4.05
2018-02-14T05:49:01.262Z,4.08
2018-02-14T05:49:41.801Z,4.04
2018-02-14T05:50:22.379Z,3.98
2018-02-14T05:51:02.935Z,4.06
2018-02-14T05:51:43.494Z,3.94
2018-02-14T05:52:24.034Z,4.02
2018-02-14T05:53:04.586Z,4.04
2018-02-14T05:53:45.146Z,4.11
2018-02-14T05:54:25.715Z,4.14
2018-02-14T05:55:06.286Z,4.09
2018-02-14T05:55:46.839Z,4.02
2018-02-14T05:56:27.405Z,4.05
2018-02-14T05:57:07.967Z,4.04
2018-02-14T05:57:48.506Z,4.06
2018-02-14T05:58:29.096Z,4.12
2018-02-14T05:59:09.631Z,4.06
2018-02-14T05:59:50.189Z,4.04
2018-02-14T06:00:30.762Z,4
2018-02-14T06:01:11.327Z,4.02
2018-02-14T06:01:51.882Z,4.06
2018-02-14T06:02:32.434Z,4.08
2018-02-14T06:03:12.988Z,4.11
2018-02-14T06:03:53.544Z,3.97
2018-02-14T06:04:34.095Z,4
2018-02-14T06:05:14.738Z,4.06
2018-02-14T06:05:55.306Z,3.94
2018-02-14T06:06:35.885Z,4.02
2018-02-14T06:07:16.426Z,4.02
2018-02-14T06:07:56.996Z,3.9
2018-02-14T06:08:37.578Z,3.83
2018-02-14T06:09:18.125Z,3.94
2018-02-14T06:09:58.689Z,4.02
2018-02-14T06:10:39.244Z,3.78
2018-02-14T06:11:19.814Z,3.8
2018-02-14T06:12:00.374Z,3.72
2018-02-14T06:12:40.932Z,3.65
2018-02-14T06:13:21.484Z,3.79
2018-02-14T06:14:02.052Z,3.78
2018-02-14T06:14:42.622Z,3.79
2018-02-14T06:15:23.164Z,3.79
2018-02-14T06:16:03.718Z,3.91
2018-02-14T06:16:44.284Z,3.91
2018-02-14T06:17:24.854Z,3.94
2018-02-14T06:18:05.414Z,3.91
2018-02-14T06:18:45.972Z,3.91
2018-02-14T06:19:26.521Z,3.8
2018-02-14T06:20:07.073Z,3.78
2018-02-14T06:20:47.630Z,3.79
2018-02-14T06:21:28.209Z,3.9
2018-02-14T06:22:08.798Z,3.98
2018-02-14T06:22:49.360Z,3.93
2018-02-14T06:23:29.921Z,3.96
2018-02-14T06:24:10.476Z,3.87
2018-02-14T06:24:51.066Z,3.93
2018-02-14T06:25:31.625Z,3.96
2018-02-14T06:26:12.183Z,4.04
2018-02-14T06:26:52.753Z,3.96
2018-02-14T06:27:33.313Z,3.96
2018-02-14T06:28:13.886Z,3.98
2018-02-14T06:28:54.436Z,3.96
2018-02-14T06:29:34.995Z,3.98
2018-02-14T06:30:15.560Z,4
2018-02-14T06:30:56.100Z,3.96
2018-02-14T06:31:36.655Z,4.04
2018-02-14T06:32:17.213Z,4.08
2018-02-14T06:32:57.790Z,4.11
2018-02-14T06:33:38.357Z,4.09
2018-02-14T06:34:18.910Z,4.15
2018-02-14T06:34:59.469Z,4.12
2018-02-14T06:35:40.063Z,4.09
2018-02-14T06:36:20.605Z,4.02
2018-02-14T06:37:01.177Z,4.02
2018-02-14T06:37:41.755Z,4.08
2018-02-14T06:38:22.319Z,4.15
2018-02-14T06:39:02.875Z,3.97
2018-02-14T06:39:44.203Z,4.05
2018-02-14T06:40:24.751Z,4.02
2018-02-14T06:41:05.309Z,4.06
2018-02-14T06:41:45.860Z,4.06
2018-02-14T06:42:26.421Z,4.12
2018-02-14T06:43:06.968Z,3.98
2018-02-14T06:43:47.529Z,4.08
2018-02-14T06:44:28.100Z,4.09
2018-02-14T06:45:08.660Z,3.96
2018-02-14T06:45:49.242Z,3.97
2018-02-14T06:46:29.802Z,4
2018-02-14T06:47:10.361Z,3.97
2018-02-14T06:47:50.924Z,4.05
2018-02-14T06:48:31.474Z,3.93
2018-02-14T06:49:12.069Z,4
2018-02-14T06:49:52.630Z,4
2018-02-14T06:50:33.187Z,4.08
2018-02-14T06:51:13.739Z,4.09
2018-02-14T06:51:54.303Z,4.15
2018-02-14T06:52:34.883Z,4.05
2018-02-14T06:53:15.455Z,4.11
2018-02-14T06:53:55.965Z,4.12
2018-02-14T06:54:36.513Z,4.05
2018-02-14T06:55:17.061Z,4.04
2018-02-14T06:55:57.622Z,4.04
2018-02-14T06:56:38.181Z,4.2
2018-02-14T06:57:18.740Z,4.12
2018-02-14T06:57:59.305Z,4.09
2018-02-14T06:58:39.881Z,4.2
2018-02-14T06:59:20.442Z,4.06
2018-02-14T07:00:01.002Z,3.98
2018-02-14T07:00:41.551Z,4.26
2018-02-14T07:01:22.110Z,4.18
2018-02-14T07:02:02.673Z,4.12
2018-02-14T07:02:43.218Z,4.22
2018-02-14T07:03:23.782Z,4.23
2018-02-14T07:04:04.358Z,4.27
2018-02-14T07:04:44.939Z,4.37
2018-02-14T07:05:25.528Z,4.23
2018-02-14T07:06:06.083Z,4.2
2018-02-14T07:06:46.654Z,4.16
2018-02-14T07:07:27.188Z,4.29
2018-02-14T07:08:07.731Z,4.41
2018-02-14T07:08:48.290Z,4.34
2018-02-14T07:09:28.844Z,4.37
2018-02-14T07:10:09.452Z,4.41
2018-02-14T07:10:50.126Z,4.42
2018-02-14T07:11:30.674Z,4.52
2018-02-14T07:12:11.298Z,4.52
2018-02-14T07:12:51.851Z,4.47
2018-02-14T07:13:32.406Z,4.51
2018-02-14T07:14:13.017Z,4.7
2018-02-14T07:14:53.562Z,4.73
2018-02-14T07:15:34.687Z,4.85
2018-02-14T07:16:15.254Z,4.7
2018-02-14T07:16:55.822Z,4.8
2018-02-14T07:17:36.397Z,4.58
2018-02-14T07:18:16.963Z,4.42
2018-02-14T07:18:57.532Z,4.4
2018-02-14T07:19:38.092Z,4.33
2018-02-14T07:20:18.668Z,4.32
2018-02-14T07:20:59.214Z,4.36
2018-02-14T07:21:39.784Z,4.34
2018-02-14T07:22:20.865Z,4.34
2018-02-14T07:23:01.520Z,4.36
2018-02-14T07:23:42.105Z,4.36
2018-02-14T07:24:22.655Z,4.37
2018-02-14T07:25:03.217Z,4.51
2018-02-14T07:25:43.759Z,4.51
2018-02-14T07:26:24.353Z,4.52
2018-02-14T07:27:04.906Z,4.7
2018-02-14T07:27:45.460Z,4.47
2018-02-14T07:28:26.072Z,4.5
2018-02-14T07:29:06.657Z,4.58
2018-02-14T07:29:47.193Z,4.54
2018-02-14T07:30:27.781Z,4.55
2018-02-14T07:31:08.335Z,4.5
2018-02-14T07:31:48.900Z,4.52
2018-02-14T07:32:29.454Z,4.48
2018-02-14T07:33:10.032Z,4.6
2018-02-14T07:33:50.597Z,4.51
2018-02-14T07:34:31.166Z,4.58
2018-02-14T07:35:11.738Z,4.54
2018-02-14T07:35:52.309Z,4.48
2018-02-14T07:36:32.869Z,4.41
2018-02-14T07:37:13.418Z,4.47
2018-02-14T07:37:53.972Z,4.36
2018-02-14T07:38:34.532Z,4.37
2018-02-14T07:39:15.085Z,4.4
2018-02-14T07:39:55.646Z,4.33
2018-02-14T07:40:36.207Z,4.37
2018-02-14T07:41:16.765Z,4.36
2018-02-14T07:41:57.314Z,4.36
2018-02-14T07:42:37.890Z,4.3
2018-02-14T07:43:18.467Z,4.34
2018-02-14T07:43:59.018Z,4.42
2018-02-14T07:44:39.579Z,4.41
2018-02-14T07:45:20.218Z,4.36
2018-02-14T07:46:00.718Z,4.5
2018-02-14T07:46:41.269Z,4.5
2018-02-14T07:47:21.852Z,4.45
2018-02-14T07:48:02.393Z,4.42
2018-02-14T07:48:42.949Z,4.34
2018-02-14T07:49:23.566Z,4.36
2018-02-14T07:50:04.146Z,4.45
2018-02-14T07:50:44.709Z,4.48
2018-02-14T07:51:25.248Z,4.47
2018-02-14T07:52:05.809Z,4.54
2018-02-14T07:52:46.363Z,4.54
2018-02-14T07:53:26.911Z,4.62
2018-02-14T07:54:07.476Z,4.59
2018-02-14T07:54:48.019Z,4.58
2018-02-14T07:55:28.570Z,4.8
2018-02-14T07:56:09.120Z,5.02
2018-02-14T07:56:49.682Z,5.35
2018-02-14T07:57:30.396Z,5.99
2018-02-14T07:58:10.959Z,6.14
2018-02-14T07:58:51.523Z,6
2018-02-14T07:59:32.080Z,5.53
2018-02-14T08:00:12.642Z,5.25
2018-02-14T08:00:53.192Z,5.1
2018-02-14T08:01:33.744Z,4.91
2018-02-14T08:02:14.302Z,4.66
2018-02-14T08:02:54.844Z,4.58
2018-02-14T08:03:35.412Z,4.48
2018-02-14T08:04:15.995Z,4.5
2018-02-14T08:04:56.584Z,4.62
2018-02-14T08:05:37.157Z,4.65
2018-02-14T08:06:17.693Z,5.04
2018-02-14T08:06:58.258Z,5.12
2018-02-14T08:07:38.870Z,4.8
2018-02-14T08:08:19.480Z,5.02
2018-02-14T08:09:00.452Z,4.97
2018-02-14T08:09:40.999Z,5.36
2018-02-14T08:10:21.564Z,5.02
2018-02-14T08:11:02.138Z,4.58
2018-02-14T08:11:42.668Z,4.55
2018-02-14T08:12:23.216Z,4.42
2018-02-14T08:13:03.777Z,4.47
2018-02-14T08:13:44.335Z,4.54
2018-02-14T08:14:24.876Z,4.51
2018-02-14T08:15:05.428Z,4.51
2018-02-14T08:15:46.056Z,4.54
2018-02-14T08:16:26.665Z,4.6
2018-02-14T08:17:07.236Z,4.63
2018-02-14T08:17:48.190Z,4.65
2018-02-14T08:18:28.968Z,4.59
2018-02-14T08:19:09.525Z,4.88
2018-02-14T08:19:50.078Z,5.35
2018-02-14T08:20:30.622Z,5.54
2018-02-14T08:21:11.173Z,5.75
2018-02-14T08:21:51.734Z,5.71
2018-02-14T08:22:32.290Z,5.42
2018-02-14T08:23:13.262Z,5.07
2018-02-14T08:23:53.837Z,4.96
2018-02-14T08:24:34.392Z,5
2018-02-14T08:25:15.019Z,4.72
2018-02-14T08:25:55.591Z,4.75
2018-02-14T08:26:36.171Z,4.8
2018-02-14T08:27:16.732Z,4.92
2018-02-14T08:27:57.295Z,4.73
2018-02-14T08:28:37.835Z,4.75
2018-02-14T08:29:18.410Z,4.52
2018-02-14T08:29:59.023Z,4.59
2018-02-14T08:30:39.648Z,4.62
2018-02-14T08:31:20.215Z,4.72
2018-02-14T08:32:00.780Z,4.67
2018-02-14T08:32:41.336Z,4.72
2018-02-14T08:33:21.902Z,4.59
2018-02-14T08:34:02.435Z,4.58
2018-02-14T08:34:43.030Z,4.54
2018-02-14T08:35:23.713Z,4.6
2018-02-14T08:36:04.262Z,4.69
2018-02-14T08:36:44.825Z,4.88
2018-02-14T08:37:25.381Z,4.7
2018-02-14T08:38:05.920Z,4.48
2018-02-14T08:38:46.481Z,4.36
2018-02-14T08:39:27.039Z,4.5
2018-02-14T08:40:07.569Z,4.63
2018-02-14T08:40:48.129Z,4.62
2018-02-14T08:41:28.678Z,4.7
2018-02-14T08:42:09.236Z,4.7
2018-02-14T08:42:49.817Z,4.73
2018-02-14T08:43:30.386Z,4.72
2018-02-14T08:44:10.939Z,4.8
2018-02-14T08:44:51.497Z,4.8
2018-02-14T08:45:32.184Z,4.72
2018-02-14T08:46:12.683Z,4.59
2018-02-14T08:46:53.227Z,4.54
2018-02-14T08:47:33.786Z,4.51
2018-02-14T08:49:32.058Z,4.77
2018-02-14T08:50:12.633Z,4.91
2018-02-14T08:50:53.202Z,4.92
2018-02-14T08:51:33.763Z,5.15
2018-02-14T08:52:14.301Z,5.1
2018-02-14T08:52:54.880Z,4.96
2018-02-14T08:53:35.432Z,5.02
2018-02-14T08:54:15.979Z,5.02
2018-02-14T08:54:56.564Z,4.92
2018-02-14T08:55:37.120Z,4.65
2018-02-14T08:56:17.691Z,4.54
2018-02-14T08:56:58.292Z,4.54
2018-02-14T08:57:38.847Z,4.48
2018-02-14T08:58:19.400Z,4.52
2018-02-14T08:59:00.033Z,4.54
2018-02-14T08:59:40.590Z,4.52
2018-02-14T09:00:21.147Z,4.54
2018-02-14T09:01:01.716Z,4.51
2018-02-14T09:01:42.320Z,4.51
2018-02-14T09:02:22.877Z,4.5
2018-02-14T09:03:03.425Z,4.44
2018-02-14T09:03:44.011Z,4.36
2018-02-14T09:04:24.552Z,4.36